createdAt,value
2018-09-15T00:00:59.114Z,67.90
2018-09-15T00:03:29.096Z,68.00
2018-09-15T00:05:59.047Z,68.23
2018-09-15T00:08:28.824Z,68.81
2018-09-15T00:10:58.809Z,68.36
2018-09-15T00:13:28.751Z,68.96
2018-09-15T00:15:58.707Z,68.79
2018-09-15T00:18:28.833Z,67.77
2018-09-15T00:20:58.739Z,68.47
2018-09-15T00:23:28.732Z,68.25
2018-09-15T00:25:58.701Z,68.64
2018-09-15T00:28:28.584Z,67.97
2018-09-15T00:30:58.492Z,67.78
2018-09-15T00:33:28.553Z,67.87
2018-09-15T00:35:58.490Z,68.22
2018-09-15T00:38:28.412Z,68.39
2018-09-15T00:40:58.263Z,68.70
2018-09-15T00:43:28.144Z,68.29
2018-09-15T00:45:57.981Z,68.32
2018-09-15T00:48:27.930Z,68.57
2018-09-15T00:50:57.760Z,67.74
2018-09-15T00:53:28.432Z,68.24
2018-09-15T00:55:58.829Z,68.30
2018-09-15T00:58:29.254Z,67.71
2018-09-15T01:00:59.486Z,67.68
2018-09-15T01:03:30.117Z,67.79
2018-09-15T01:06:00.259Z,67.25
2018-09-15T01:08:30.649Z,67.11
2018-09-15T01:11:01.188Z,66.84
2018-09-15T01:13:31.427Z,66.57
2018-09-15T01:16:02.287Z,66.18
2018-09-15T01:18:32.577Z,66.71
2018-09-15T01:21:02.831Z,66.44
2018-09-15T01:23:33.522Z,66.38
2018-09-15T01:26:04.015Z,66.87
2018-09-15T01:28:34.141Z,66.75
2018-09-15T01:31:04.356Z,66.56
2018-09-15T01:33:34.571Z,66.45
2018-09-15T01:36:05.007Z,65.67
2018-09-15T01:38:35.331Z,66.34
2018-09-15T01:41:05.784Z,66.21
2018-09-15T01:43:36.228Z,66.24
2018-09-15T01:46:06.529Z,66.59
2018-09-15T01:48:36.640Z,66.92
2018-09-15T01:51:06.698Z,66.36
2018-09-15T01:53:36.984Z,67.28
2018-09-15T01:56:07.533Z,67.59
2018-09-15T01:58:38.010Z,67.40
2018-09-15T02:01:08.706Z,67.07
2018-09-15T02:03:38.924Z,67.38
2018-09-15T02:06:09.171Z,67.91
2018-09-15T02:08:39.598Z,67.37
2018-09-15T02:11:09.912Z,67.92
2018-09-15T02:13:40.016Z,68.03
2018-09-15T02:16:10.372Z,68.45
2018-09-15T02:18:40.748Z,68.26
2018-09-15T02:21:10.819Z,68.05
2018-09-15T02:23:41.329Z,68.16
2018-09-15T02:26:11.591Z,69.00
2018-09-15T02:28:41.799Z,68.85
2018-09-15T02:31:12.016Z,68.57
2018-09-15T02:33:42.249Z,69.10
2018-09-15T02:36:12.715Z,69.11
2018-09-15T02:38:43.159Z,69.71
2018-09-15T02:41:13.668Z,68.93
2018-09-15T02:43:44.494Z,69.39
2018-09-15T02:46:15.303Z,69.31
2018-09-15T02:48:45.724Z,70.12
2018-09-15T02:51:15.981Z,70.31
2018-09-15T02:53:46.404Z,70.36
2018-09-15T02:56:16.857Z,70.10
2018-09-15T02:58:47.318Z,69.92
2018-09-15T03:01:17.871Z,70.26
2018-09-15T03:03:48.383Z,70.93
2018-09-15T03:06:18.994Z,70.24
2018-09-15T03:08:49.363Z,70.25
2018-09-15T03:11:19.685Z,70.25
2018-09-15T03:13:49.792Z,70.84
2018-09-15T03:16:20.085Z,70.11
2018-09-15T03:18:50.624Z,70.85
2018-09-15T03:21:20.958Z,70.80
2018-09-15T03:23:51.632Z,70.56
2018-09-15T03:26:22.095Z,70.60
2018-09-15T03:28:52.335Z,70.90
2018-09-15T03:31:22.716Z,71.34
2018-09-15T03:33:52.932Z,70.90
2018-09-15T03:36:23.233Z,71.09
2018-09-15T03:38:53.715Z,71.75
2018-09-15T03:41:23.993Z,71.06
2018-09-15T03:43:54.497Z,71.18
2018-09-15T03:46:24.771Z,71.88
2018-09-15T03:48:55.288Z,71.15
2018-09-15T03:51:25.392Z,71.30
2018-09-15T03:53:55.669Z,72.13
2018-09-15T03:56:26.080Z,71.57
2018-09-15T03:58:57.761Z,72.52
2018-09-15T04:01:27.891Z,72.34
2018-09-15T04:03:58.505Z,71.90
2018-09-15T04:06:28.859Z,71.88
2018-09-15T04:08:59.094Z,72.00
2018-09-15T04:11:28.951Z,72.70
2018-09-15T04:13:58.798Z,72.73
2018-09-15T04:16:28.606Z,72.91
2018-09-15T04:18:58.705Z,72.88
2018-09-15T04:21:28.842Z,72.72
2018-09-15T04:23:58.691Z,73.01
2018-09-15T04:26:37.279Z,72.72
2018-09-15T04:29:17.055Z,73.12
2018-09-15T04:31:47.020Z,72.76
2018-09-15T04:34:17.341Z,72.62
2018-09-15T04:36:47.131Z,72.76
2018-09-15T04:39:16.945Z,72.66
2018-09-15T04:41:47.103Z,73.01
2018-09-15T04:44:17.001Z,73.98
2018-09-15T04:46:46.784Z,74.02
2018-09-15T04:49:16.627Z,73.81
2018-09-15T04:51:46.435Z,73.95
2018-09-15T04:54:16.273Z,73.43
2018-09-15T04:56:46.130Z,73.82
2018-09-15T04:59:16.395Z,74.29
2018-09-15T05:01:46.203Z,73.55
2018-09-15T05:04:16.151Z,73.65
2018-09-15T05:06:46.183Z,73.58
2018-09-15T05:09:15.936Z,74.55
2018-09-15T05:11:45.766Z,73.85
2018-09-15T05:14:15.619Z,73.92
2018-09-15T05:16:45.519Z,75.04
2018-09-15T05:19:15.509Z,74.92
2018-09-15T05:21:45.575Z,74.64
2018-09-15T05:24:15.505Z,74.12
2018-09-15T05:26:45.346Z,74.51
2018-09-15T05:29:15.180Z,74.56
2018-09-15T05:31:45.059Z,75.08
2018-09-15T05:34:15.362Z,74.39
2018-09-15T05:36:45.491Z,74.77
2018-09-15T05:39:15.687Z,73.85
2018-09-15T05:41:45.617Z,74.33
2018-09-15T05:44:15.626Z,74.21
2018-09-15T05:46:45.507Z,73.96
2018-09-15T05:49:15.340Z,73.79
2018-09-15T05:51:46.809Z,73.80
2018-09-15T05:54:16.736Z,73.51
2018-09-15T05:56:46.798Z,73.96
2018-09-15T05:59:16.662Z,74.10
2018-09-15T06:01:46.637Z,73.61
2018-09-15T06:04:16.424Z,73.32
2018-09-15T06:06:46.281Z,73.45
2018-09-15T06:09:16.225Z,73.14
2018-09-15T06:11:46.055Z,72.72
2018-09-15T06:14:16.374Z,72.97
2018-09-15T06:16:46.152Z,73.48
2018-09-15T06:19:16.247Z,73.01
2018-09-15T06:21:46.215Z,72.70
2018-09-15T06:24:16.436Z,73.27
2018-09-15T06:26:46.388Z,72.41
2018-09-15T06:29:16.344Z,71.37
2018-09-15T06:31:46.176Z,71.87
2018-09-15T06:34:16.186Z,71.32
2018-09-15T06:36:46.537Z,71.52
2018-09-15T06:39:16.531Z,69.87
2018-09-15T06:41:46.411Z,69.65
2018-09-15T06:44:16.606Z,69.96
2018-09-15T06:46:46.866Z,68.87
2018-09-15T06:49:16.874Z,69.36
2018-09-15T06:51:46.756Z,68.98
2018-09-15T06:54:16.739Z,67.97
2018-09-15T06:56:46.539Z,67.71
2018-09-15T06:59:16.655Z,67.01
2018-09-15T07:01:46.486Z,66.76
2018-09-15T07:04:16.801Z,67.26
2018-09-15T07:06:46.920Z,67.06
2018-09-15T07:09:17.083Z,67.56
2018-09-15T07:11:47.282Z,66.38
2018-09-15T07:14:17.625Z,66.87
2018-09-15T07:16:48.288Z,65.92
2018-09-15T07:19:18.774Z,66.56
2018-09-15T07:21:48.993Z,66.45
2018-09-15T07:24:19.331Z,66.16
2018-09-15T07:26:49.619Z,66.33
2018-09-15T07:29:19.947Z,65.68
2018-09-15T07:31:50.678Z,65.09
2018-09-15T07:34:21.020Z,65.97
2018-09-15T07:36:51.399Z,65.08
2018-09-15T07:39:21.907Z,65.09
2018-09-15T07:41:52.662Z,65.98
2018-09-15T07:44:23.130Z,66.24
2018-09-15T07:46:53.522Z,65.44
2018-09-15T07:49:23.828Z,64.76
2018-09-15T07:51:53.994Z,64.76
2018-09-15T07:54:24.949Z,64.80
2018-09-15T07:56:55.619Z,65.51
2018-09-15T07:59:25.976Z,65.51
2018-09-15T08:01:56.770Z,67.22
2018-09-15T08:04:27.284Z,67.70
2018-09-15T08:06:57.803Z,67.81
2018-09-15T08:09:28.125Z,67.91
2018-09-15T08:11:58.660Z,68.26
2018-09-15T08:14:29.008Z,68.36
2018-09-15T08:16:59.291Z,67.95
2018-09-15T08:19:29.672Z,68.09
2018-09-15T08:22:01.026Z,67.36
2018-09-15T08:24:31.603Z,66.42
2018-09-15T08:27:01.820Z,67.01
2018-09-15T08:29:32.165Z,67.71
2018-09-15T08:32:02.790Z,68.40
2018-09-15T08:34:33.065Z,67.87
2018-09-15T08:37:03.384Z,68.24
2018-09-15T08:39:33.939Z,68.13
2018-09-15T08:42:04.346Z,68.07
2018-09-15T08:44:35.161Z,68.37
2018-09-15T08:47:06.224Z,68.43
2018-09-15T08:49:37.268Z,68.75
2018-09-15T08:52:07.960Z,68.86
2018-09-15T08:54:38.397Z,67.99
2018-09-15T08:57:08.749Z,67.88
2018-09-15T08:59:38.790Z,67.16
2018-09-15T09:02:12.905Z,67.19
2018-09-15T09:04:44.308Z,67.46
2018-09-15T09:07:14.197Z,67.37
2018-09-15T09:09:44.191Z,67.55
2018-09-15T09:12:14.137Z,67.64
2018-09-15T09:14:44.376Z,67.94
2018-09-15T09:17:14.374Z,67.47
2018-09-15T09:19:44.227Z,66.60
2018-09-15T09:22:14.599Z,65.81
2018-09-15T09:24:45.164Z,65.19
2018-09-15T09:27:15.354Z,65.19
2018-09-15T09:29:45.594Z,64.17
2018-09-15T09:32:15.668Z,62.93
2018-09-15T09:34:46.047Z,61.54
2018-09-15T09:37:16.355Z,61.97
2018-09-15T09:39:46.785Z,62.17
2018-09-15T09:42:16.977Z,60.78
2018-09-15T09:44:47.008Z,60.07
2018-09-15T09:47:17.427Z,60.71
2018-09-15T09:49:47.808Z,61.31
2018-09-15T09:52:18.175Z,61.68
2018-09-15T09:54:48.781Z,62.26
2018-09-15T09:57:18.859Z,61.87
2018-09-15T09:59:49.500Z,60.98
2018-09-15T10:02:22.789Z,60.76
2018-09-15T10:04:53.844Z,60.54
2018-09-15T10:07:23.931Z,60.25
2018-09-15T10:09:54.356Z,59.86
2018-09-15T10:12:24.655Z,58.80
2018-09-15T10:14:54.693Z,57.88
2018-09-15T10:17:24.719Z,57.09
2018-09-15T10:19:55.209Z,56.82
2018-09-15T10:22:25.353Z,56.96
2018-09-15T10:24:55.769Z,56.00
2018-09-15T10:27:26.242Z,55.88
2018-09-15T10:29:56.436Z,54.99
2018-09-15T10:32:26.825Z,54.74
2018-09-15T10:34:56.780Z,55.52
2018-09-15T10:37:27.111Z,56.44
2018-09-15T10:39:57.081Z,57.33
2018-09-15T10:42:27.006Z,57.70
2018-09-15T10:44:56.874Z,58.36
2018-09-15T10:47:26.843Z,57.04
2018-09-15T10:49:56.788Z,57.42
2018-09-15T10:52:26.932Z,55.96
2018-09-15T10:54:57.000Z,54.54
2018-09-15T10:57:27.010Z,52.58
2018-09-15T10:59:56.986Z,52.25
2018-09-15T11:02:27.237Z,51.10
2018-09-15T11:04:57.219Z,51.92
2018-09-15T11:07:27.512Z,52.97
2018-09-15T11:09:57.375Z,51.66
2018-09-15T11:12:27.789Z,53.20
2018-09-15T11:14:58.117Z,54.15
2018-09-15T11:17:28.841Z,52.72
2018-09-15T11:19:59.117Z,52.21
2018-09-15T11:22:29.512Z,51.08
2018-09-15T11:25:00.188Z,50.78
2018-09-15T11:27:30.632Z,49.88
2018-09-15T11:30:01.786Z,50.34
2018-09-15T11:32:32.546Z,51.16
2018-09-15T11:35:02.775Z,49.98
2018-09-15T11:37:33.073Z,49.47
2018-09-15T11:40:03.284Z,49.83
2018-09-15T11:42:33.797Z,49.45
2018-09-15T11:45:04.304Z,49.51
2018-09-15T11:47:34.987Z,49.52
2018-09-15T11:50:05.413Z,49.70
2018-09-15T11:52:35.583Z,49.71
2018-09-15T11:55:05.794Z,50.13
2018-09-15T11:57:36.077Z,50.65
2018-09-15T12:00:06.928Z,50.86
2018-09-15T12:02:37.018Z,50.67
2018-09-15T12:05:07.660Z,49.50
2018-09-15T12:07:37.995Z,50.15
2018-09-15T12:10:08.663Z,50.76
2018-09-15T12:12:39.163Z,51.40
2018-09-15T12:15:09.654Z,51.74
2018-09-15T12:17:39.976Z,52.33
2018-09-15T12:20:10.566Z,52.20
2018-09-15T12:22:41.021Z,52.44
2018-09-15T12:25:11.750Z,54.06
2018-09-15T12:27:42.155Z,56.42
2018-09-15T12:30:12.519Z,57.78
2018-09-15T12:32:43.105Z,57.94
2018-09-15T12:35:13.503Z,58.49
2018-09-15T12:37:43.638Z,58.51
2018-09-15T12:40:14.160Z,58.62
2018-09-15T12:42:44.408Z,59.55
2018-09-15T12:45:14.805Z,59.47
2018-09-15T12:47:45.237Z,58.07
2018-09-15T12:50:16.411Z,58.26
2018-09-15T12:52:47.005Z,57.50
2018-09-15T12:55:17.037Z,57.38
2018-09-15T12:57:47.382Z,54.96
2018-09-15T13:00:17.479Z,55.72
2018-09-15T13:02:47.767Z,55.55
2018-09-15T13:05:18.436Z,53.73
2018-09-15T13:07:48.799Z,53.60
2018-09-15T13:10:19.204Z,54.26
2018-09-15T13:12:50.140Z,53.31
2018-09-15T13:15:20.823Z,53.99
2018-09-15T13:17:52.024Z,54.22
2018-09-15T13:20:22.451Z,52.84
2018-09-15T13:22:52.537Z,53.71
2018-09-15T13:25:22.754Z,53.91
2018-09-15T13:27:52.721Z,54.08
2018-09-15T13:30:22.754Z,53.50
2018-09-15T13:32:52.487Z,53.88
2018-09-15T13:35:22.485Z,53.43
2018-09-15T13:37:52.452Z,53.71
2018-09-15T13:40:22.705Z,54.26
2018-09-15T13:42:52.692Z,55.22
2018-09-15T13:45:22.620Z,55.19
2018-09-15T13:47:52.722Z,54.93
2018-09-15T13:50:22.908Z,55.40
2018-09-15T13:52:52.896Z,56.50
2018-09-15T13:55:22.785Z,55.73
2018-09-15T13:57:53.085Z,56.47
2018-09-15T14:00:23.133Z,56.89
2018-09-15T14:02:53.036Z,55.15
2018-09-15T14:05:23.101Z,54.70
2018-09-15T14:07:52.915Z,54.70
2018-09-15T14:10:22.880Z,54.47
2018-09-15T14:12:52.938Z,54.35
2018-09-15T14:15:23.176Z,54.06
2018-09-15T14:17:53.148Z,53.38
2018-09-15T14:20:23.050Z,54.12
2018-09-15T14:22:53.172Z,52.70
2018-09-15T14:25:23.299Z,52.84
2018-09-15T14:27:53.337Z,51.63
2018-09-15T14:30:23.283Z,51.22
2018-09-15T14:32:53.154Z,53.20
2018-09-15T14:35:23.400Z,51.82
2018-09-15T14:37:53.330Z,51.88
2018-09-15T14:40:23.254Z,53.12
2018-09-15T14:42:53.200Z,50.50
2018-09-15T14:45:23.171Z,51.97
2018-09-15T14:47:53.112Z,51.07
2018-09-15T14:50:26.055Z,51.32
2018-09-15T14:52:55.975Z,51.11
2018-09-15T14:55:26.133Z,51.06
2018-09-15T14:57:56.240Z,52.50
2018-09-15T15:00:26.183Z,51.39
2018-09-15T15:02:59.971Z,52.30
2018-09-15T15:05:29.824Z,52.51
2018-09-15T15:07:59.953Z,52.30
2018-09-15T15:10:29.886Z,51.50
2018-09-15T15:12:59.777Z,51.14
2018-09-15T15:15:29.960Z,50.58
2018-09-15T15:17:59.904Z,51.50
2018-09-15T15:20:30.963Z,50.86
2018-09-15T15:23:01.042Z,51.17
2018-09-15T15:25:31.177Z,51.17
2018-09-15T15:28:01.268Z,50.57
2018-09-15T15:30:31.319Z,49.77
2018-09-15T15:33:01.233Z,50.98
2018-09-15T15:35:31.354Z,49.71
2018-09-15T15:38:01.325Z,51.10
2018-09-15T15:40:31.667Z,51.43
2018-09-15T15:43:01.996Z,50.35
2018-09-15T15:45:31.944Z,50.55
2018-09-15T15:48:01.908Z,51.32
2018-09-15T15:50:31.871Z,51.99
2018-09-15T15:53:01.853Z,51.30
2018-09-15T15:55:32.013Z,50.99
2018-09-15T15:58:01.832Z,51.69
2018-09-15T16:00:32.119Z,52.08
2018-09-15T16:03:02.654Z,51.37
2018-09-15T16:05:32.736Z,51.55
2018-09-15T16:08:02.520Z,51.34
2018-09-15T16:10:32.423Z,50.74
2018-09-15T16:13:02.801Z,51.13
2018-09-15T16:15:32.937Z,51.08
2018-09-15T16:18:02.721Z,50.46
2018-09-15T16:20:32.942Z,51.33
2018-09-15T16:23:02.885Z,52.59
2018-09-15T16:25:32.861Z,53.08
2018-09-15T16:28:02.705Z,51.53
2018-09-15T16:30:32.832Z,52.33
2018-09-15T16:33:02.718Z,52.49
2018-09-15T16:35:32.852Z,53.59
2018-09-15T16:38:03.018Z,52.63
2018-09-15T16:40:33.307Z,53.99
2018-09-15T16:43:03.401Z,52.98
2018-09-15T16:45:33.637Z,53.92
2018-09-15T16:48:03.768Z,54.59
2018-09-15T16:50:33.886Z,53.29
2018-09-15T16:53:03.919Z,53.34
2018-09-15T16:55:34.049Z,53.42
2018-09-15T16:58:04.072Z,54.79
2018-09-15T17:00:34.055Z,54.29
2018-09-15T17:03:04.117Z,53.84
2018-09-15T17:05:34.150Z,53.54
2018-09-15T17:08:04.388Z,54.30
2018-09-15T17:10:34.333Z,55.14
2018-09-15T17:13:04.388Z,54.82
2018-09-15T17:15:34.572Z,55.26
2018-09-15T17:18:04.523Z,55.31
2018-09-15T17:20:34.663Z,55.34
2018-09-15T17:23:04.598Z,55.84
2018-09-15T17:25:34.551Z,56.33
2018-09-15T17:28:04.400Z,56.71
2018-09-15T17:30:34.260Z,56.47
2018-09-15T17:33:04.481Z,57.13
2018-09-15T17:35:36.290Z,57.80
2018-09-15T17:38:06.586Z,57.73
2018-09-15T17:40:36.418Z,59.07
2018-09-15T17:43:06.599Z,58.58
2018-09-15T17:45:37.067Z,59.19
2018-09-15T17:48:07.630Z,60.43
2018-09-15T17:50:37.753Z,59.86
2018-09-15T17:53:08.121Z,61.13
2018-09-15T17:55:38.156Z,60.75
2018-09-15T17:58:08.384Z,61.49
2018-09-15T18:00:38.444Z,62.13
2018-09-15T18:03:08.628Z,62.53
2018-09-15T18:05:38.527Z,62.35
2018-09-15T18:08:08.564Z,62.44
2018-09-15T18:10:38.573Z,63.43
2018-09-15T18:13:08.698Z,63.30
2018-09-15T18:15:39.412Z,62.95
2018-09-15T18:18:09.415Z,63.54
2018-09-15T18:20:39.241Z,63.87
2018-09-15T18:23:09.125Z,63.89
2018-09-15T18:25:38.966Z,63.97
2018-09-15T18:28:09.096Z,65.05
2018-09-15T18:30:39.051Z,64.43
2018-09-15T18:33:08.867Z,64.58
2018-09-15T18:35:38.793Z,65.05
2018-09-15T18:38:08.774Z,65.08
2018-09-15T18:40:38.891Z,65.51
2018-09-15T18:43:09.241Z,65.60
2018-09-15T18:45:39.912Z,64.91
2018-09-15T18:48:10.311Z,65.16
2018-09-15T18:50:40.886Z,66.35
2018-09-15T18:53:12.368Z,65.88
2018-09-15T18:55:43.129Z,65.76
2018-09-15T18:58:13.848Z,66.06
2018-09-15T19:00:44.705Z,66.39
2018-09-15T19:03:15.710Z,66.02
2018-09-15T19:05:48.619Z,66.71
2018-09-15T19:08:19.134Z,66.80
2018-09-15T19:10:49.590Z,67.21
2018-09-15T19:13:19.905Z,67.29
2018-09-15T19:15:50.123Z,66.90
2018-09-15T19:18:20.363Z,67.05
2018-09-15T19:20:50.669Z,67.83
2018-09-15T19:23:21.121Z,68.31
2018-09-15T19:25:51.717Z,68.02
2018-09-15T19:28:22.164Z,68.35
2018-09-15T19:30:52.711Z,68.99
2018-09-15T19:33:23.120Z,68.60
2018-09-15T19:35:53.255Z,69.40
2018-09-15T19:38:23.100Z,69.32
2018-09-15T19:40:53.404Z,68.91
2018-09-15T19:43:23.485Z,69.13
2018-09-15T19:45:53.787Z,69.45
2018-09-15T19:48:24.366Z,70.16
2018-09-15T19:50:54.935Z,70.00
2018-09-15T19:53:25.343Z,70.34
2018-09-15T19:55:56.143Z,70.46
2018-09-15T19:58:26.277Z,70.40
2018-09-15T20:00:56.771Z,70.92
2018-09-15T20:03:27.200Z,70.74
2018-09-15T20:05:59.134Z,71.18
2018-09-15T20:08:29.429Z,71.56
2018-09-15T20:10:59.856Z,72.47
2018-09-15T20:13:30.298Z,72.80
2018-09-15T20:15:58.302Z,72.37
2018-09-15T20:18:26.400Z,73.08
2018-09-15T20:20:54.581Z,72.71
2018-09-15T20:23:25.581Z,72.99
2018-09-15T20:25:56.088Z,72.82
2018-09-15T20:28:26.965Z,73.27
2018-09-15T20:30:57.519Z,74.06
2018-09-15T20:33:28.249Z,74.94
2018-09-15T20:35:58.599Z,75.36
2018-09-15T20:38:29.235Z,75.05
2018-09-15T20:40:59.402Z,75.05
2018-09-15T20:43:29.821Z,75.12
2018-09-15T20:46:00.297Z,75.12
2018-09-15T20:48:30.519Z,75.41
2018-09-15T20:51:01.367Z,74.99
2018-09-15T20:53:31.532Z,75.81
2018-09-15T20:56:02.015Z,76.20
2018-09-15T20:58:32.281Z,76.31
2018-09-15T21:01:02.530Z,75.73
2018-09-15T21:03:33.551Z,76.09
2018-09-15T21:06:04.567Z,77.02
2018-09-15T21:08:34.980Z,77.27
2018-09-15T21:11:05.778Z,76.15
2018-09-15T21:13:36.153Z,76.57
2018-09-15T21:16:06.897Z,77.02
2018-09-15T21:18:37.887Z,77.16
2018-09-15T21:21:08.712Z,76.95
2018-09-15T21:23:39.117Z,75.99
2018-09-15T21:26:09.206Z,76.53
2018-09-15T21:28:39.599Z,76.45
2018-09-15T21:31:09.708Z,76.84
2018-09-15T21:33:40.283Z,77.04
2018-09-15T21:36:10.258Z,76.83
2018-09-15T21:38:40.856Z,76.58
2018-09-15T21:41:12.710Z,76.57
2018-09-15T21:43:43.376Z,76.60
2018-09-15T21:46:13.627Z,75.87
2018-09-15T21:48:44.213Z,76.12
2018-09-15T21:51:14.470Z,76.62
2018-09-15T21:53:44.818Z,77.04
2018-09-15T21:56:14.914Z,76.79
2018-09-15T21:58:45.512Z,76.90
2018-09-15T22:01:15.943Z,77.72
2018-09-15T22:03:51.325Z,77.00
2018-09-15T22:06:21.909Z,76.83
2018-09-15T22:08:52.112Z,77.61
2018-09-15T22:11:22.443Z,77.29
2018-09-15T22:13:52.911Z,78.38
2018-09-15T22:16:23.090Z,78.03
2018-09-15T22:18:53.225Z,77.58
2018-09-15T22:21:23.436Z,77.77
2018-09-15T22:23:54.307Z,77.71
2018-09-15T22:26:24.748Z,77.53
2018-09-15T22:28:55.168Z,78.03
2018-09-15T22:31:25.572Z,77.90
2018-09-15T22:33:56.111Z,78.24
2018-09-15T22:36:26.849Z,77.84
2018-09-15T22:38:57.165Z,77.30
2018-09-15T22:41:27.528Z,77.30
2018-09-15T22:43:57.895Z,77.56
2018-09-15T22:46:28.109Z,77.72
2018-09-15T22:48:58.810Z,77.68
2018-09-15T22:51:29.095Z,77.95
2018-09-15T22:53:59.777Z,77.68
2018-09-15T22:56:30.068Z,77.60
2018-09-15T22:59:00.617Z,77.42
2018-09-15T23:01:31.212Z,78.03
2018-09-15T23:04:07.844Z,77.84
2018-09-15T23:06:38.352Z,78.58
2018-09-15T23:09:11.192Z,79.11
2018-09-15T23:11:41.749Z,78.71
2018-09-15T23:14:12.105Z,78.89
2018-09-15T23:16:42.572Z,79.65
2018-09-15T23:19:12.915Z,78.85
2018-09-15T23:21:42.944Z,77.88
2018-09-15T23:24:13.031Z,77.75
2018-09-15T23:26:43.653Z,78.74
2018-09-15T23:29:14.019Z,77.63
2018-09-15T23:31:44.384Z,77.46
2018-09-15T23:34:15.045Z,77.92
2018-09-15T23:36:45.793Z,78.42
2018-09-15T23:39:16.593Z,78.14
2018-09-15T23:41:46.869Z,78.83
2018-09-15T23:44:17.301Z,78.32
2018-09-15T23:46:47.916Z,78.24
2018-09-15T23:49:18.366Z,78.30
2018-09-15T23:51:48.526Z,77.76
2018-09-15T23:54:19.141Z,77.86
2018-09-15T23:56:49.784Z,77.34
2018-09-15T23:59:20.565Z,77.66
